sensor_id;sensor_type;location;lat;lon;timestamp;P1;durP1;ratioP1;P2;durP2;ratioP2
41426;SDS011;27171;51.812;19.514;2023-02-01T00:00:52;4.53;;;2.38;;
41426;SDS011;27171;51.812;19.514;2023-02-01T00:03:53;4.68;;;2.35;;
41426;SDS011;27171;51.812;19.514;2023-02-01T00:06:54;5.65;;;2.55;;
41426;SDS011;27171;51.812;19.514;2023-02-01T00:12:56;5.07;;;1.25;;
41426;SDS011;27171;51.812;19.514;2023-02-01T00:19:05;4.32;;;1.10;;
41426;SDS011;27171;51.812;19.514;2023-02-01T00:22:08;5.15;;;1.92;;
41426;SDS011;27171;51.812;19.514;2023-02-01T00:25:09;4.50;;;1.52;;
41426;SDS011;27171;51.812;19.514;2023-02-01T00:31:11;6.65;;;1.60;;
41426;SDS011;27171;51.812;19.514;2023-02-01T00:34:13;3.42;;;1.25;;
41426;SDS011;27171;51.812;19.514;2023-02-01T00:37:16;6.40;;;1.15;;
41426;SDS011;27171;51.812;19.514;2023-02-01T00:40:17;8.48;;;1.55;;
41426;SDS011;27171;51.812;19.514;2023-02-01T00:43:18;5.68;;;1.05;;
41426;SDS011;27171;51.812;19.514;2023-02-01T00:46:20;7.85;;;1.05;;
41426;SDS011;27171;51.812;19.514;2023-02-01T00:49:21;7.57;;;0.82;;
41426;SDS011;27171;51.812;19.514;2023-02-01T00:55:23;9.27;;;0.98;;
41426;SDS011;27171;51.812;19.514;2023-02-01T00:58:24;4.57;;;0.70;;
41426;SDS011;27171;51.812;19.514;2023-02-01T01:01:26;6.35;;;0.90;;
41426;SDS011;27171;51.812;19.514;2023-02-01T01:04:29;7.18;;;2.25;;
41426;SDS011;27171;51.812;19.514;2023-02-01T01:07:30;8.48;;;1.00;;
41426;SDS011;27171;51.812;19.514;2023-02-01T01:10:32;7.75;;;1.05;;
41426;SDS011;27171;51.812;19.514;2023-02-01T01:13:33;11.15;;;1.30;;
41426;SDS011;27171;51.812;19.514;2023-02-01T01:16:34;6.38;;;1.00;;
41426;SDS011;27171;51.812;19.514;2023-02-01T01:19:36;8.63;;;1.10;;
41426;SDS011;27171;51.812;19.514;2023-02-01T01:22:37;6.32;;;0.95;;
41426;SDS011;27171;51.812;19.514;2023-02-01T01:25:38;4.80;;;1.83;;
41426;SDS011;27171;51.812;19.514;2023-02-01T01:28:40;5.00;;;0.90;;
41426;SDS011;27171;51.812;19.514;2023-02-01T01:31:41;6.22;;;1.10;;
41426;SDS011;27171;51.812;19.514;2023-02-01T01:40:45;4.03;;;0.60;;
41426;SDS011;27171;51.812;19.514;2023-02-01T01:46:57;11.45;;;1.50;;
41426;SDS011;27171;51.812;19.514;2023-02-01T01:50:00;5.78;;;1.13;;
41426;SDS011;27171;51.812;19.514;2023-02-01T01:53:03;7.78;;;1.77;;
41426;SDS011;27171;51.812;19.514;2023-02-01T01:56:08;6.18;;;1.52;;
41426;SDS011;27171;51.812;19.514;2023-02-01T01:59:10;11.77;;;1.35;;
41426;SDS011;27171;51.812;19.514;2023-02-01T02:02:11;6.38;;;1.25;;
41426;SDS011;27171;51.812;19.514;2023-02-01T02:05:13;6.50;;;1.17;;
41426;SDS011;27171;51.812;19.514;2023-02-01T02:08:16;8.10;;;1.25;;
41426;SDS011;27171;51.812;19.514;2023-02-01T02:11:19;9.23;;;1.55;;
41426;SDS011;27171;51.812;19.514;2023-02-01T02:14:20;11.90;;;2.15;;
41426;SDS011;27171;51.812;19.514;2023-02-01T02:17:32;5.18;;;1.05;;
41426;SDS011;27171;51.812;19.514;2023-02-01T02:30:59;8.13;;;1.85;;
41426;SDS011;27171;51.812;19.514;2023-02-01T02:41:20;7.40;;;2.13;;
41426;SDS011;27171;51.812;19.514;2023-02-01T02:44:32;9.27;;;2.42;;
41426;SDS011;27171;51.812;19.514;2023-02-01T02:57:15;9.73;;;2.15;;
41426;SDS011;27171;51.812;19.514;2023-02-01T03:00:18;10.07;;;2.15;;
41426;SDS011;27171;51.812;19.514;2023-02-01T03:03:23;15.65;;;2.72;;
41426;SDS011;27171;51.812;19.514;2023-02-01T03:06:24;13.07;;;2.85;;
41426;SDS011;27171;51.812;19.514;2023-02-01T03:09:27;6.68;;;1.75;;
41426;SDS011;27171;51.812;19.514;2023-02-01T03:12:35;9.00;;;1.88;;
41426;SDS011;27171;51.812;19.514;2023-02-01T03:22:26;13.52;;;2.53;;
41426;SDS011;27171;51.812;19.514;2023-02-01T03:25:30;10.65;;;2.03;;
41426;SDS011;27171;51.812;19.514;2023-02-01T03:28:33;12.52;;;2.53;;
41426;SDS011;27171;51.812;19.514;2023-02-01T03:31:36;13.52;;;1.88;;
41426;SDS011;27171;51.812;19.514;2023-02-01T03:34:38;8.68;;;1.90;;
41426;SDS011;27171;51.812;19.514;2023-02-01T03:37:40;11.60;;;1.70;;
41426;SDS011;27171;51.812;19.514;2023-02-01T03:40:41;13.25;;;2.40;;
41426;SDS011;27171;51.812;19.514;2023-02-01T03:43:49;18.73;;;2.97;;
41426;SDS011;27171;51.812;19.514;2023-02-01T03:47:03;9.48;;;2.10;;
41426;SDS011;27171;51.812;19.514;2023-02-01T03:50:21;6.22;;;1.60;;
41426;SDS011;27171;51.812;19.514;2023-02-01T03:53:24;10.82;;;2.22;;
41426;SDS011;27171;51.812;19.514;2023-02-01T03:56:27;6.90;;;2.10;;
41426;SDS011;27171;51.812;19.514;2023-02-01T03:59:30;7.28;;;1.38;;
41426;SDS011;27171;51.812;19.514;2023-02-01T04:02:31;11.85;;;2.63;;
41426;SDS011;27171;51.812;19.514;2023-02-01T04:05:33;6.88;;;1.73;;
41426;SDS011;27171;51.812;19.514;2023-02-01T04:08:40;13.05;;;2.35;;
41426;SDS011;27171;51.812;19.514;2023-02-01T04:11:41;11.23;;;2.72;;
41426;SDS011;27171;51.812;19.514;2023-02-01T04:14:43;9.23;;;1.77;;
41426;SDS011;27171;51.812;19.514;2023-02-01T04:20:45;7.80;;;1.40;;
41426;SDS011;27171;51.812;19.514;2023-02-01T04:23:46;8.52;;;1.70;;
41426;SDS011;27171;51.812;19.514;2023-02-01T04:26:47;12.32;;;2.13;;
41426;SDS011;27171;51.812;19.514;2023-02-01T04:32:49;8.48;;;1.33;;
41426;SDS011;27171;51.812;19.514;2023-02-01T04:35:50;11.10;;;2.10;;
41426;SDS011;27171;51.812;19.514;2023-02-01T04:38:51;11.02;;;1.65;;
41426;SDS011;27171;51.812;19.514;2023-02-01T04:41:53;11.32;;;1.60;;
41426;SDS011;27171;51.812;19.514;2023-02-01T04:44:54;9.05;;;1.23;;
41426;SDS011;27171;51.812;19.514;2023-02-01T04:47:55;5.88;;;1.13;;
41426;SDS011;27171;51.812;19.514;2023-02-01T04:50:56;8.88;;;1.10;;
41426;SDS011;27171;51.812;19.514;2023-02-01T04:56:58;7.90;;;1.63;;
41426;SDS011;27171;51.812;19.514;2023-02-01T05:00:00;14.30;;;1.98;;
41426;SDS011;27171;51.812;19.514;2023-02-01T05:03:01;9.70;;;1.80;;
41426;SDS011;27171;51.812;19.514;2023-02-01T05:09:03;8.02;;;1.23;;
41426;SDS011;27171;51.812;19.514;2023-02-01T05:18:06;7.70;;;1.20;;
41426;SDS011;27171;51.812;19.514;2023-02-01T05:21:08;7.95;;;1.13;;
41426;SDS011;27171;51.812;19.514;2023-02-01T05:24:09;12.60;;;2.00;;
41426;SDS011;27171;51.812;19.514;2023-02-01T05:27:10;6.38;;;1.15;;
41426;SDS011;27171;51.812;19.514;2023-02-01T05:30:11;11.95;;;2.17;;
41426;SDS011;27171;51.812;19.514;2023-02-01T05:33:12;8.75;;;1.38;;
41426;SDS011;27171;51.812;19.514;2023-02-01T05:39:14;7.65;;;1.75;;
41426;SDS011;27171;51.812;19.514;2023-02-01T05:42:16;11.88;;;1.67;;
41426;SDS011;27171;51.812;19.514;2023-02-01T05:48:18;10.23;;;1.33;;
41426;SDS011;27171;51.812;19.514;2023-02-01T05:51:19;9.70;;;1.55;;
41426;SDS011;27171;51.812;19.514;2023-02-01T05:57:21;5.88;;;0.95;;
41426;SDS011;27171;51.812;19.514;2023-02-01T06:03:23;10.35;;;1.77;;
41426;SDS011;27171;51.812;19.514;2023-02-01T06:06:24;8.73;;;1.80;;
41426;SDS011;27171;51.812;19.514;2023-02-01T06:12:26;8.55;;;1.58;;
41426;SDS011;27171;51.812;19.514;2023-02-01T06:15:28;8.48;;;1.27;;
41426;SDS011;27171;51.812;19.514;2023-02-01T06:18:29;8.70;;;1.45;;
41426;SDS011;27171;51.812;19.514;2023-02-01T06:21:30;12.65;;;2.67;;
41426;SDS011;27171;51.812;19.514;2023-02-01T06:24:31;12.75;;;2.05;;
41426;SDS011;27171;51.812;19.514;2023-02-01T06:27:32;7.43;;;1.90;;
41426;SDS011;27171;51.812;19.514;2023-02-01T06:33:35;11.80;;;1.95;;
41426;SDS011;27171;51.812;19.514;2023-02-01T06:36:36;10.45;;;1.95;;
41426;SDS011;27171;51.812;19.514;2023-02-01T06:39:37;13.52;;;1.80;;
41426;SDS011;27171;51.812;19.514;2023-02-01T06:42:39;9.38;;;1.65;;
41426;SDS011;27171;51.812;19.514;2023-02-01T06:48:41;11.45;;;2.13;;
41426;SDS011;27171;51.812;19.514;2023-02-01T06:51:42;9.77;;;1.48;;
41426;SDS011;27171;51.812;19.514;2023-02-01T06:54:43;14.25;;;1.90;;
41426;SDS011;27171;51.812;19.514;2023-02-01T06:57:44;14.88;;;2.60;;
41426;SDS011;27171;51.812;19.514;2023-02-01T07:00:45;8.05;;;1.73;;
41426;SDS011;27171;51.812;19.514;2023-02-01T07:03:47;8.43;;;2.25;;
41426;SDS011;27171;51.812;19.514;2023-02-01T07:06:49;11.93;;;1.92;;
41426;SDS011;27171;51.812;19.514;2023-02-01T07:12:51;7.90;;;1.38;;
41426;SDS011;27171;51.812;19.514;2023-02-01T07:15:52;5.05;;;0.95;;
41426;SDS011;27171;51.812;19.514;2023-02-01T07:18:53;9.82;;;2.28;;
41426;SDS011;27171;51.812;19.514;2023-02-01T07:24:55;9.95;;;1.77;;
41426;SDS011;27171;51.812;19.514;2023-02-01T07:31:04;8.77;;;1.48;;
41426;SDS011;27171;51.812;19.514;2023-02-01T07:34:13;9.88;;;1.48;;
41426;SDS011;27171;51.812;19.514;2023-02-01T07:37:14;12.15;;;2.53;;
41426;SDS011;27171;51.812;19.514;2023-02-01T07:43:16;7.53;;;2.28;;
41426;SDS011;27171;51.812;19.514;2023-02-01T07:46:17;7.18;;;1.63;;
41426;SDS011;27171;51.812;19.514;2023-02-01T07:52:19;7.70;;;1.60;;
41426;SDS011;27171;51.812;19.514;2023-02-01T07:55:20;11.93;;;2.22;;
41426;SDS011;27171;51.812;19.514;2023-02-01T07:58:22;11.20;;;1.98;;
41426;SDS011;27171;51.812;19.514;2023-02-01T08:01:25;9.90;;;1.77;;
41426;SDS011;27171;51.812;19.514;2023-02-01T08:04:28;12.45;;;1.88;;
41426;SDS011;27171;51.812;19.514;2023-02-01T08:07:29;15.27;;;2.50;;
41426;SDS011;27171;51.812;19.514;2023-02-01T08:10:30;15.48;;;3.22;;
41426;SDS011;27171;51.812;19.514;2023-02-01T08:13:33;13.93;;;2.88;;
41426;SDS011;27171;51.812;19.514;2023-02-01T08:16:34;12.73;;;2.03;;
41426;SDS011;27171;51.812;19.514;2023-02-01T08:22:36;13.30;;;3.20;;
41426;SDS011;27171;51.812;19.514;2023-02-01T08:25:37;9.77;;;2.03;;
41426;SDS011;27171;51.812;19.514;2023-02-01T08:28:39;8.38;;;2.22;;
41426;SDS011;27171;51.812;19.514;2023-02-01T08:31:41;10.02;;;2.30;;
41426;SDS011;27171;51.812;19.514;2023-02-01T08:34:43;8.20;;;1.98;;
41426;SDS011;27171;51.812;19.514;2023-02-01T08:37:44;13.27;;;2.72;;
41426;SDS011;27171;51.812;19.514;2023-02-01T08:40:45;10.75;;;2.53;;
41426;SDS011;27171;51.812;19.514;2023-02-01T08:43:46;11.77;;;2.20;;
41426;SDS011;27171;51.812;19.514;2023-02-01T08:46:47;13.80;;;2.40;;
41426;SDS011;27171;51.812;19.514;2023-02-01T08:52:49;11.95;;;2.78;;
41426;SDS011;27171;51.812;19.514;2023-02-01T08:55:50;10.07;;;2.83;;
41426;SDS011;27171;51.812;19.514;2023-02-01T08:58:52;14.77;;;2.95;;
41426;SDS011;27171;51.812;19.514;2023-02-01T09:04:55;10.98;;;3.03;;
41426;SDS011;27171;51.812;19.514;2023-02-01T09:07:56;15.80;;;4.10;;
41426;SDS011;27171;51.812;19.514;2023-02-01T09:10:58;13.07;;;3.30;;
41426;SDS011;27171;51.812;19.514;2023-02-01T09:14:03;15.25;;;3.28;;
41426;SDS011;27171;51.812;19.514;2023-02-01T09:17:05;12.60;;;2.70;;
41426;SDS011;27171;51.812;19.514;2023-02-01T09:26:08;9.52;;;1.98;;
41426;SDS011;27171;51.812;19.514;2023-02-01T09:29:09;12.05;;;3.00;;
41426;SDS011;27171;51.812;19.514;2023-02-01T09:32:10;13.73;;;3.17;;
41426;SDS011;27171;51.812;19.514;2023-02-01T09:35:11;15.55;;;3.80;;
41426;SDS011;27171;51.812;19.514;2023-02-01T09:38:13;16.70;;;3.47;;
41426;SDS011;27171;51.812;19.514;2023-02-01T09:41:19;14.65;;;4.20;;
41426;SDS011;27171;51.812;19.514;2023-02-01T09:47:58;15.63;;;4.00;;
41426;SDS011;27171;51.812;19.514;2023-02-01T09:51:04;15.25;;;3.17;;
41426;SDS011;27171;51.812;19.514;2023-02-01T09:57:19;11.18;;;3.10;;
41426;SDS011;27171;51.812;19.514;2023-02-01T10:00:35;11.73;;;3.80;;
41426;SDS011;27171;51.812;19.514;2023-02-01T10:03:38;14.30;;;4.90;;
41426;SDS011;27171;51.812;19.514;2023-02-01T10:23:07;12.18;;;4.43;;
41426;SDS011;27171;51.812;19.514;2023-02-01T10:26:27;16.42;;;5.28;;
41426;SDS011;27171;51.812;19.514;2023-02-01T10:29:36;17.35;;;4.55;;
41426;SDS011;27171;51.812;19.514;2023-02-01T10:32:40;11.77;;;4.85;;
41426;SDS011;27171;51.812;19.514;2023-02-01T10:35:41;21.95;;;6.10;;
41426;SDS011;27171;51.812;19.514;2023-02-01T10:38:46;13.30;;;4.53;;
41426;SDS011;27171;51.812;19.514;2023-02-01T10:41:47;13.73;;;4.68;;
41426;SDS011;27171;51.812;19.514;2023-02-01T10:44:49;12.82;;;4.63;;
41426;SDS011;27171;51.812;19.514;2023-02-01T10:57:21;14.77;;;5.72;;
41426;SDS011;27171;51.812;19.514;2023-02-01T11:00:25;14.18;;;4.00;;
41426;SDS011;27171;51.812;19.514;2023-02-01T11:06:37;10.68;;;4.45;;
41426;SDS011;27171;51.812;19.514;2023-02-01T11:09:48;11.68;;;4.25;;
41426;SDS011;27171;51.812;19.514;2023-02-01T11:12:54;10.45;;;3.92;;
41426;SDS011;27171;51.812;19.514;2023-02-01T11:15:55;13.38;;;4.65;;
41426;SDS011;27171;51.812;19.514;2023-02-01T11:18:57;14.95;;;4.30;;
41426;SDS011;27171;51.812;19.514;2023-02-01T11:21:59;17.10;;;5.28;;
41426;SDS011;27171;51.812;19.514;2023-02-01T11:25:01;13.40;;;4.47;;
41426;SDS011;27171;51.812;19.514;2023-02-01T11:28:10;10.02;;;3.55;;
41426;SDS011;27171;51.812;19.514;2023-02-01T11:31:11;16.10;;;3.70;;
41426;SDS011;27171;51.812;19.514;2023-02-01T11:34:15;13.40;;;3.92;;
41426;SDS011;27171;51.812;19.514;2023-02-01T11:37:23;11.07;;;4.13;;
41426;SDS011;27171;51.812;19.514;2023-02-01T11:40:30;11.43;;;3.87;;
41426;SDS011;27171;51.812;19.514;2023-02-01T11:43:36;7.72;;;3.08;;
41426;SDS011;27171;51.812;19.514;2023-02-01T11:46:37;11.35;;;3.65;;
41426;SDS011;27171;51.812;19.514;2023-02-01T11:59:58;12.00;;;4.25;;
41426;SDS011;27171;51.812;19.514;2023-02-01T12:23:09;6.00;;;2.20;;
41426;SDS011;27171;51.812;19.514;2023-02-01T12:35:59;7.72;;;3.70;;
41426;SDS011;27171;51.812;19.514;2023-02-01T12:42:27;7.70;;;3.45;;
41426;SDS011;27171;51.812;19.514;2023-02-01T12:45:35;7.45;;;3.28;;
41426;SDS011;27171;51.812;19.514;2023-02-01T12:52:01;10.18;;;3.33;;
41426;SDS011;27171;51.812;19.514;2023-02-01T12:58:27;5.00;;;3.38;;
41426;SDS011;27171;51.812;19.514;2023-02-01T13:01:37;8.07;;;3.85;;
41426;SDS011;27171;51.812;19.514;2023-02-01T13:11:19;11.23;;;3.88;;
41426;SDS011;27171;51.812;19.514;2023-02-01T13:17:42;9.35;;;4.00;;
41426;SDS011;27171;51.812;19.514;2023-02-01T13:20:47;9.60;;;4.63;;
41426;SDS011;27171;51.812;19.514;2023-02-01T13:23:53;10.05;;;3.95;;
41426;SDS011;27171;51.812;19.514;2023-02-01T13:26:54;8.98;;;4.15;;
41426;SDS011;27171;51.812;19.514;2023-02-01T13:43:28;7.75;;;3.67;;
41426;SDS011;27171;51.812;19.514;2023-02-01T13:46:38;9.13;;;4.15;;
41426;SDS011;27171;51.812;19.514;2023-02-01T13:49:41;7.07;;;4.20;;
41426;SDS011;27171;51.812;19.514;2023-02-01T13:52:43;6.47;;;3.50;;
41426;SDS011;27171;51.812;19.514;2023-02-01T13:56:00;7.15;;;3.63;;
41426;SDS011;27171;51.812;19.514;2023-02-01T13:59:35;7.95;;;4.15;;
41426;SDS011;27171;51.812;19.514;2023-02-01T14:09:09;9.30;;;5.47;;
41426;SDS011;27171;51.812;19.514;2023-02-01T14:15:36;10.90;;;5.85;;
41426;SDS011;27171;51.812;19.514;2023-02-01T14:24:59;10.00;;;6.18;;
41426;SDS011;27171;51.812;19.514;2023-02-01T14:28:00;10.65;;;6.25;;
41426;SDS011;27171;51.812;19.514;2023-02-01T14:31:06;9.25;;;6.35;;
41426;SDS011;27171;51.812;19.514;2023-02-01T14:34:25;11.15;;;5.65;;
41426;SDS011;27171;51.812;19.514;2023-02-01T14:37:41;12.05;;;5.15;;
41426;SDS011;27171;51.812;19.514;2023-02-01T14:40:44;11.80;;;5.97;;
41426;SDS011;27171;51.812;19.514;2023-02-01T14:59:15;7.75;;;4.35;;
41426;SDS011;27171;51.812;19.514;2023-02-01T15:02:20;11.55;;;5.68;;
41426;SDS011;27171;51.812;19.514;2023-02-01T15:05:28;13.43;;;7.40;;
41426;SDS011;27171;51.812;19.514;2023-02-01T15:08:34;9.85;;;5.90;;
41426;SDS011;27171;51.812;19.514;2023-02-01T15:15:21;9.63;;;6.03;;
41426;SDS011;27171;51.812;19.514;2023-02-01T15:18:23;11.43;;;6.68;;
41426;SDS011;27171;51.812;19.514;2023-02-01T15:24:29;9.20;;;5.32;;
41426;SDS011;27171;51.812;19.514;2023-02-01T15:27:32;9.50;;;5.28;;
41426;SDS011;27171;51.812;19.514;2023-02-01T15:30:34;7.70;;;5.72;;
41426;SDS011;27171;51.812;19.514;2023-02-01T15:33:35;9.27;;;6.20;;
41426;SDS011;27171;51.812;19.514;2023-02-01T15:36:37;9.68;;;5.13;;
41426;SDS011;27171;51.812;19.514;2023-02-01T15:39:38;9.70;;;6.75;;
41426;SDS011;27171;51.812;19.514;2023-02-01T15:43:18;9.38;;;5.60;;
41426;SDS011;27171;51.812;19.514;2023-02-01T15:46:40;10.05;;;6.60;;
41426;SDS011;27171;51.812;19.514;2023-02-01T15:49:42;10.27;;;5.93;;
41426;SDS011;27171;51.812;19.514;2023-02-01T15:52:49;8.35;;;6.03;;
41426;SDS011;27171;51.812;19.514;2023-02-01T15:55:53;7.07;;;5.15;;
41426;SDS011;27171;51.812;19.514;2023-02-01T15:58:58;8.50;;;5.57;;
41426;SDS011;27171;51.812;19.514;2023-02-01T16:02:01;9.80;;;5.75;;
41426;SDS011;27171;51.812;19.514;2023-02-01T16:05:02;6.82;;;5.13;;
41426;SDS011;27171;51.812;19.514;2023-02-01T16:11:24;9.30;;;5.50;;
41426;SDS011;27171;51.812;19.514;2023-02-01T16:14:28;7.90;;;4.50;;
41426;SDS011;27171;51.812;19.514;2023-02-01T16:17:29;10.00;;;5.63;;
41426;SDS011;27171;51.812;19.514;2023-02-01T16:20:31;8.02;;;4.80;;
41426;SDS011;27171;51.812;19.514;2023-02-01T16:23:32;7.78;;;4.78;;
41426;SDS011;27171;51.812;19.514;2023-02-01T16:26:34;8.60;;;4.18;;
41426;SDS011;27171;51.812;19.514;2023-02-01T16:29:35;8.35;;;4.30;;
41426;SDS011;27171;51.812;19.514;2023-02-01T16:32:36;10.93;;;5.22;;
41426;SDS011;27171;51.812;19.514;2023-02-01T16:35:38;10.93;;;5.40;;
41426;SDS011;27171;51.812;19.514;2023-02-01T16:41:40;6.22;;;3.67;;
41426;SDS011;27171;51.812;19.514;2023-02-01T16:44:41;11.05;;;4.70;;
41426;SDS011;27171;51.812;19.514;2023-02-01T16:47:45;8.48;;;4.18;;
41426;SDS011;27171;51.812;19.514;2023-02-01T16:50:51;9.52;;;3.65;;
41426;SDS011;27171;51.812;19.514;2023-02-01T16:53:55;9.77;;;4.65;;
41426;SDS011;27171;51.812;19.514;2023-02-01T16:59:57;7.47;;;3.38;;
41426;SDS011;27171;51.812;19.514;2023-02-01T17:05:59;8.75;;;3.80;;
41426;SDS011;27171;51.812;19.514;2023-02-01T17:09:00;7.25;;;3.55;;
41426;SDS011;27171;51.812;19.514;2023-02-01T17:12:01;9.40;;;3.53;;
41426;SDS011;27171;51.812;19.514;2023-02-01T17:15:05;14.25;;;4.28;;
41426;SDS011;27171;51.812;19.514;2023-02-01T17:18:07;9.35;;;4.07;;
41426;SDS011;27171;51.812;19.514;2023-02-01T17:21:16;7.35;;;3.72;;
41426;SDS011;27171;51.812;19.514;2023-02-01T17:24:20;11.15;;;5.75;;
41426;SDS011;27171;51.812;19.514;2023-02-01T17:27:23;9.80;;;4.28;;
41426;SDS011;27171;51.812;19.514;2023-02-01T17:33:35;7.75;;;4.35;;
41426;SDS011;27171;51.812;19.514;2023-02-01T17:36:36;16.77;;;7.53;;
41426;SDS011;27171;51.812;19.514;2023-02-01T17:39:38;12.10;;;6.40;;
41426;SDS011;27171;51.812;19.514;2023-02-01T17:42:39;15.65;;;7.03;;
41426;SDS011;27171;51.812;19.514;2023-02-01T17:45:50;13.52;;;6.70;;
41426;SDS011;27171;51.812;19.514;2023-02-01T17:48:53;12.45;;;6.28;;
41426;SDS011;27171;51.812;19.514;2023-02-01T17:51:55;14.45;;;6.35;;
41426;SDS011;27171;51.812;19.514;2023-02-01T17:54:57;14.73;;;6.38;;
41426;SDS011;27171;51.812;19.514;2023-02-01T18:00:59;13.38;;;6.57;;
41426;SDS011;27171;51.812;19.514;2023-02-01T18:04:00;18.52;;;7.32;;
41426;SDS011;27171;51.812;19.514;2023-02-01T18:07:01;13.80;;;8.05;;
41426;SDS011;27171;51.812;19.514;2023-02-01T18:10:02;15.07;;;8.57;;
41426;SDS011;27171;51.812;19.514;2023-02-01T18:13:04;14.80;;;7.10;;
41426;SDS011;27171;51.812;19.514;2023-02-01T18:16:05;17.02;;;7.65;;
41426;SDS011;27171;51.812;19.514;2023-02-01T18:19:18;11.73;;;6.95;;
41426;SDS011;27171;51.812;19.514;2023-02-01T18:22:20;15.35;;;7.75;;
41426;SDS011;27171;51.812;19.514;2023-02-01T18:25:24;18.10;;;9.35;;
41426;SDS011;27171;51.812;19.514;2023-02-01T18:28:27;16.05;;;8.15;;
41426;SDS011;27171;51.812;19.514;2023-02-01T18:34:30;11.70;;;7.68;;
41426;SDS011;27171;51.812;19.514;2023-02-01T18:37:31;15.90;;;7.35;;
41426;SDS011;27171;51.812;19.514;2023-02-01T18:40:33;14.38;;;7.13;;
41426;SDS011;27171;51.812;19.514;2023-02-01T18:43:36;11.70;;;6.30;;
41426;SDS011;27171;51.812;19.514;2023-02-01T18:46:37;12.05;;;5.75;;
41426;SDS011;27171;51.812;19.514;2023-02-01T18:49:39;10.32;;;6.50;;
41426;SDS011;27171;51.812;19.514;2023-02-01T18:52:40;8.57;;;5.05;;
41426;SDS011;27171;51.812;19.514;2023-02-01T18:55:41;11.15;;;6.28;;
41426;SDS011;27171;51.812;19.514;2023-02-01T18:58:43;12.60;;;6.13;;
41426;SDS011;27171;51.812;19.514;2023-02-01T19:01:45;12.32;;;6.20;;
41426;SDS011;27171;51.812;19.514;2023-02-01T19:04:46;9.23;;;5.53;;
41426;SDS011;27171;51.812;19.514;2023-02-01T19:10:50;8.52;;;5.30;;
41426;SDS011;27171;51.812;19.514;2023-02-01T19:13:51;10.43;;;6.50;;
41426;SDS011;27171;51.812;19.514;2023-02-01T19:16:53;10.55;;;6.50;;
41426;SDS011;27171;51.812;19.514;2023-02-01T19:19:54;9.30;;;5.47;;
41426;SDS011;27171;51.812;19.514;2023-02-01T19:22:55;9.80;;;5.57;;
41426;SDS011;27171;51.812;19.514;2023-02-01T19:25:57;11.95;;;7.70;;
41426;SDS011;27171;51.812;19.514;2023-02-01T19:28:58;11.38;;;6.70;;
41426;SDS011;27171;51.812;19.514;2023-02-01T19:31:59;13.63;;;8.45;;
41426;SDS011;27171;51.812;19.514;2023-02-01T19:35:01;13.52;;;7.60;;
41426;SDS011;27171;51.812;19.514;2023-02-01T19:38:02;15.65;;;7.72;;
41426;SDS011;27171;51.812;19.514;2023-02-01T19:41:03;15.13;;;8.35;;
41426;SDS011;27171;51.812;19.514;2023-02-01T19:44:04;14.10;;;7.88;;
41426;SDS011;27171;51.812;19.514;2023-02-01T19:47:06;13.50;;;8.05;;
41426;SDS011;27171;51.812;19.514;2023-02-01T19:50:07;16.20;;;8.68;;
41426;SDS011;27171;51.812;19.514;2023-02-01T19:53:11;16.55;;;9.15;;
41426;SDS011;27171;51.812;19.514;2023-02-01T19:56:12;18.95;;;11.68;;
41426;SDS011;27171;51.812;19.514;2023-02-01T19:59:13;18.40;;;11.30;;
41426;SDS011;27171;51.812;19.514;2023-02-01T20:02:15;15.18;;;10.63;;
41426;SDS011;27171;51.812;19.514;2023-02-01T20:05:16;16.33;;;10.18;;
41426;SDS011;27171;51.812;19.514;2023-02-01T20:08:17;17.48;;;10.57;;
41426;SDS011;27171;51.812;19.514;2023-02-01T20:11:19;14.77;;;8.73;;
41426;SDS011;27171;51.812;19.514;2023-02-01T20:14:20;13.63;;;8.77;;
41426;SDS011;27171;51.812;19.514;2023-02-01T20:17:23;17.25;;;8.77;;
41426;SDS011;27171;51.812;19.514;2023-02-01T20:20:24;13.82;;;8.20;;
41426;SDS011;27171;51.812;19.514;2023-02-01T20:23:25;12.40;;;6.95;;
41426;SDS011;27171;51.812;19.514;2023-02-01T20:26:27;12.63;;;6.88;;
41426;SDS011;27171;51.812;19.514;2023-02-01T20:29:28;14.50;;;8.30;;
41426;SDS011;27171;51.812;19.514;2023-02-01T20:32:30;12.38;;;6.70;;
41426;SDS011;27171;51.812;19.514;2023-02-01T20:38:32;11.73;;;6.40;;
41426;SDS011;27171;51.812;19.514;2023-02-01T20:41:34;11.18;;;5.35;;
41426;SDS011;27171;51.812;19.514;2023-02-01T20:44:35;10.55;;;5.38;;
41426;SDS011;27171;51.812;19.514;2023-02-01T20:50:37;9.90;;;4.53;;
41426;SDS011;27171;51.812;19.514;2023-02-01T20:53:38;8.90;;;5.15;;
41426;SDS011;27171;51.812;19.514;2023-02-01T20:56:40;11.02;;;5.75;;
41426;SDS011;27171;51.812;19.514;2023-02-01T20:59:44;11.60;;;5.95;;
41426;SDS011;27171;51.812;19.514;2023-02-01T21:02:45;9.68;;;5.20;;
41426;SDS011;27171;51.812;19.514;2023-02-01T21:08:52;9.25;;;5.43;;
41426;SDS011;27171;51.812;19.514;2023-02-01T21:11:53;8.55;;;4.97;;
41426;SDS011;27171;51.812;19.514;2023-02-01T21:14:54;10.32;;;4.70;;
41426;SDS011;27171;51.812;19.514;2023-02-01T21:17:56;10.30;;;5.28;;
41426;SDS011;27171;51.812;19.514;2023-02-01T21:21:02;7.88;;;5.18;;
41426;SDS011;27171;51.812;19.514;2023-02-01T21:24:05;9.30;;;4.82;;
41426;SDS011;27171;51.812;19.514;2023-02-01T21:27:06;10.40;;;5.28;;
41426;SDS011;27171;51.812;19.514;2023-02-01T21:30:08;7.60;;;4.72;;
41426;SDS011;27171;51.812;19.514;2023-02-01T21:33:10;6.95;;;4.30;;
41426;SDS011;27171;51.812;19.514;2023-02-01T21:36:11;8.60;;;4.35;;
41426;SDS011;27171;51.812;19.514;2023-02-01T21:39:13;9.23;;;4.75;;
41426;SDS011;27171;51.812;19.514;2023-02-01T21:42:15;9.45;;;4.05;;
41426;SDS011;27171;51.812;19.514;2023-02-01T21:45:16;10.27;;;5.18;;
41426;SDS011;27171;51.812;19.514;2023-02-01T21:48:18;6.88;;;4.00;;
41426;SDS011;27171;51.812;19.514;2023-02-01T21:54:20;5.80;;;3.60;;
41426;SDS011;27171;51.812;19.514;2023-02-01T21:57:21;4.10;;;2.60;;
41426;SDS011;27171;51.812;19.514;2023-02-01T22:03:23;3.95;;;2.42;;
41426;SDS011;27171;51.812;19.514;2023-02-01T22:06:26;4.47;;;3.20;;
41426;SDS011;27171;51.812;19.514;2023-02-01T22:09:29;7.07;;;3.83;;
41426;SDS011;27171;51.812;19.514;2023-02-01T22:15:31;6.35;;;3.92;;
41426;SDS011;27171;51.812;19.514;2023-02-01T22:21:33;7.05;;;4.15;;
41426;SDS011;27171;51.812;19.514;2023-02-01T22:24:35;7.20;;;4.95;;
41426;SDS011;27171;51.812;19.514;2023-02-01T22:27:36;7.03;;;4.93;;
41426;SDS011;27171;51.812;19.514;2023-02-01T22:33:38;7.43;;;4.93;;
41426;SDS011;27171;51.812;19.514;2023-02-01T22:42:41;8.40;;;4.63;;
41426;SDS011;27171;51.812;19.514;2023-02-01T22:45:43;6.38;;;5.03;;
41426;SDS011;27171;51.812;19.514;2023-02-01T22:51:45;7.85;;;5.00;;
41426;SDS011;27171;51.812;19.514;2023-02-01T22:54:46;6.65;;;5.10;;
41426;SDS011;27171;51.812;19.514;2023-02-01T22:57:48;6.63;;;5.25;;
41426;SDS011;27171;51.812;19.514;2023-02-01T23:03:50;10.52;;;7.57;;
41426;SDS011;27171;51.812;19.514;2023-02-01T23:06:55;10.57;;;7.28;;
41426;SDS011;27171;51.812;19.514;2023-02-01T23:12:57;9.27;;;6.70;;
41426;SDS011;27171;51.812;19.514;2023-02-01T23:15:58;11.25;;;7.57;;
41426;SDS011;27171;51.812;19.514;2023-02-01T23:19:03;12.32;;;7.72;;
41426;SDS011;27171;51.812;19.514;2023-02-01T23:22:05;10.02;;;7.03;;
41426;SDS011;27171;51.812;19.514;2023-02-01T23:25:06;8.55;;;6.53;;
41426;SDS011;27171;51.812;19.514;2023-02-01T23:28:07;9.40;;;6.80;;
41426;SDS011;27171;51.812;19.514;2023-02-01T23:34:10;10.07;;;6.82;;
41426;SDS011;27171;51.812;19.514;2023-02-01T23:40:12;11.30;;;7.00;;